Terminal Aerodrome Forecast
Issued by NWS

Home | Current Version | Previous Version | Text Only | Print | Product List | Glossary On
Versions: 1 2 3 4 5 6 7 8 9 10 11 12 13 14 15 16 17
298
FTUS43 KSGF 251720
TAFJLN
TAF
KJLN 251720Z 2518/2618 05008KT P6SM VCSH SCT050 BKN120
     FM252100 05006KT P6SM SCT050 BKN200 PROB30 2610/2616 4SM TSRA
      BR BKN035CB=

USA.gov is the U.S. government's official web portal to all federal, state and local government web resources and services.